createdAt,value
2018-09-13T00:01:02.447Z,16.00
2018-09-13T00:03:31.260Z,16.10
2018-09-13T00:06:13.407Z,16.20
2018-09-13T00:08:46.194Z,16.30
2018-09-13T00:11:21.611Z,16.40
2018-09-13T00:14:01.402Z,16.50
2018-09-13T00:16:39.710Z,16.60
2018-09-13T00:19:26.286Z,16.70
2018-09-13T00:22:00.729Z,16.80
2018-09-13T00:24:40.014Z,16.90
2018-09-13T00:27:08.886Z,16.90
2018-09-13T00:29:38.666Z,16.80
2018-09-13T00:34:28.155Z,16.80
2018-09-13T00:37:06.958Z,17.00
2018-09-13T00:39:37.698Z,17.10
2018-09-13T00:42:08.437Z,17.30
2018-09-13T00:44:49.354Z,17.40
2018-09-13T00:47:18.098Z,17.50
2018-09-13T00:49:51.635Z,17.60
2018-09-13T00:52:30.866Z,17.70
2018-09-13T00:55:00.654Z,17.80
2018-09-13T00:57:34.928Z,17.80
2018-09-13T01:00:08.017Z,17.80
2018-09-13T01:02:37.958Z,17.70
2018-09-13T01:05:17.626Z,17.70
2018-09-13T01:07:46.752Z,17.70
2018-09-13T01:10:16.604Z,17.80
2018-09-13T01:12:51.077Z,17.80
2018-09-13T01:15:25.690Z,17.90
2018-09-13T01:17:57.686Z,17.90
2018-09-13T01:20:27.441Z,17.90
2018-09-13T01:23:01.854Z,18.00
2018-09-13T01:25:41.934Z,18.00
2018-09-13T01:28:25.202Z,18.00
2018-09-13T01:30:54.965Z,18.00
2018-09-13T01:33:26.866Z,17.90
2018-09-13T01:36:00.675Z,17.90
2018-09-13T01:38:31.494Z,17.90
2018-09-13T01:41:00.326Z,17.90
2018-09-13T01:43:32.598Z,17.80
2018-09-13T01:46:13.514Z,17.70
2018-09-13T01:48:42.262Z,17.80
2018-09-13T01:51:13.106Z,17.90
2018-09-13T01:53:45.474Z,17.90
2018-09-13T01:56:25.775Z,18.00
2018-09-13T01:58:58.326Z,18.10
2018-09-13T02:01:27.070Z,18.20
2018-09-13T02:04:01.670Z,18.10
2018-09-13T02:06:40.038Z,18.10
2018-09-13T02:09:19.070Z,18.10
2018-09-13T02:11:57.502Z,18.00
2018-09-13T02:14:26.283Z,18.00
2018-09-13T02:17:03.178Z,18.00
2018-09-13T02:19:32.042Z,17.90
2018-09-13T02:22:02.874Z,17.90
2018-09-13T02:24:41.834Z,17.90
2018-09-13T02:27:12.618Z,17.90
2018-09-13T02:29:46.733Z,17.90
2018-09-13T02:32:25.094Z,17.80
2018-09-13T02:34:55.090Z,17.70
2018-09-13T02:37:25.330Z,17.70
2018-09-13T02:39:54.453Z,17.60
2018-09-13T02:42:35.514Z,17.50
2018-09-13T02:45:05.326Z,17.50
2018-09-13T02:47:38.266Z,17.40
2018-09-13T02:50:07.062Z,17.40
2018-09-13T02:52:49.298Z,17.30
2018-09-13T02:55:23.178Z,17.20
2018-09-13T02:57:52.949Z,17.20
2018-09-13T03:00:25.061Z,17.00
2018-09-13T03:05:52.318Z,16.90
2018-09-13T03:08:26.891Z,16.60
2018-09-13T03:10:57.574Z,16.50
2018-09-13T03:13:26.363Z,16.40
2018-09-13T03:16:11.944Z,16.20
2018-09-13T03:18:41.752Z,16.10
2018-09-13T03:21:15.345Z,15.90
2018-09-13T03:23:45.521Z,15.80
2018-09-13T03:26:26.022Z,15.70
2018-09-13T03:28:55.830Z,15.70
2018-09-13T03:31:25.649Z,15.60
2018-09-13T03:34:13.013Z,15.60
2018-09-13T03:36:46.573Z,15.50
2018-09-13T03:39:18.518Z,15.50
2018-09-13T03:42:07.038Z,15.50
2018-09-13T03:44:52.326Z,15.40
2018-09-13T03:47:26.341Z,15.30
2018-09-13T03:50:11.605Z,15.30
2018-09-13T03:52:47.034Z,15.20
2018-09-13T03:55:26.410Z,15.00
2018-09-13T03:58:15.314Z,15.00
2018-09-13T04:00:46.097Z,14.90
2018-09-13T04:03:17.209Z,14.80
2018-09-13T04:05:48.259Z,14.80
2018-09-13T04:08:26.918Z,14.90
2018-09-13T04:16:51.150Z,14.80
2018-09-13T04:19:29.697Z,14.80
2018-09-13T04:24:53.962Z,14.80
2018-09-13T04:27:23.746Z,14.80
2018-09-13T04:29:53.592Z,15.00
2018-09-13T04:32:23.385Z,15.10
2018-09-13T04:34:52.881Z,15.30
2018-09-13T04:37:25.593Z,15.30
2018-09-13T04:40:10.607Z,15.30
2018-09-13T04:42:40.446Z,15.10
2018-09-13T04:45:26.013Z,15.00
2018-09-13T04:51:00.957Z,14.90
2018-09-13T04:53:32.493Z,14.80
2018-09-13T04:56:13.681Z,14.80
2018-09-13T04:58:52.457Z,14.80
2018-09-13T05:01:26.562Z,14.80
2018-09-13T05:06:54.222Z,14.60
2018-09-13T05:09:24.034Z,14.40
2018-09-13T05:12:12.217Z,14.40
2018-09-13T05:17:41.878Z,14.50
2018-09-13T05:20:12.658Z,14.50
2018-09-13T05:22:46.150Z,14.60
2018-09-13T05:25:25.494Z,14.60
2018-09-13T05:27:54.373Z,14.70
2018-09-13T05:30:24.203Z,14.80
2018-09-13T05:32:53.982Z,15.00
2018-09-13T05:38:23.557Z,15.40
2018-09-13T05:40:55.770Z,15.50
2018-09-13T05:43:31.098Z,15.60
2018-09-13T05:45:59.913Z,15.70
2018-09-13T05:48:47.483Z,15.90
2018-09-13T05:51:18.334Z,16.00
2018-09-13T05:53:47.082Z,16.10
2018-09-13T05:56:22.015Z,16.10
2018-09-13T05:58:50.925Z,16.10
2018-09-13T06:01:24.187Z,16.10
2018-09-13T06:04:09.112Z,16.20
2018-09-13T06:06:47.141Z,16.40
2018-09-13T06:12:23.641Z,16.60
2018-09-13T06:15:11.009Z,16.70
2018-09-13T06:17:46.010Z,16.70
2018-09-13T06:20:16.842Z,16.60
2018-09-13T06:22:51.701Z,16.50
2018-09-13T06:25:25.357Z,16.50
2018-09-13T06:28:05.337Z,16.50
2018-09-13T06:30:51.029Z,16.50
2018-09-13T06:33:25.401Z,16.50
2018-09-13T06:36:03.537Z,16.50
2018-09-13T06:38:37.334Z,16.60
2018-09-13T06:41:11.042Z,16.60
2018-09-13T06:43:39.809Z,16.60
2018-09-13T06:46:09.614Z,16.70
2018-09-13T06:48:45.814Z,16.70
2018-09-13T06:51:24.642Z,16.80
2018-09-13T06:54:13.300Z,16.90
2018-09-13T06:56:42.073Z,17.00
2018-09-13T06:59:12.798Z,17.00
2018-09-13T07:01:53.602Z,17.10
2018-09-13T07:04:24.342Z,17.40
2018-09-13T07:06:56.102Z,17.60
2018-09-13T07:09:24.841Z,17.90
2018-09-13T07:12:05.134Z,18.40
2018-09-13T07:14:33.969Z,18.80
2018-09-13T07:17:19.105Z,19.00
2018-09-13T07:19:53.689Z,19.10
2018-09-13T07:22:25.434Z,19.10
2018-09-13T07:24:57.405Z,19.20
2018-09-13T07:27:26.133Z,19.40
2018-09-13T07:29:55.905Z,19.70
2018-09-13T07:32:24.665Z,20.20
2018-09-13T07:34:53.477Z,20.80
2018-09-13T07:37:25.981Z,21.60
2018-09-13T07:39:54.861Z,21.80
2018-09-13T07:42:24.649Z,22.50
2018-09-13T07:45:00.701Z,23.10
2018-09-13T07:47:36.810Z,23.80
2018-09-13T07:50:05.585Z,24.20
2018-09-13T07:52:35.345Z,24.70
2018-09-13T07:55:05.513Z,24.90
2018-09-13T07:57:34.353Z,25.10
2018-09-13T08:00:04.117Z,25.10
2018-09-13T08:02:32.973Z,24.70
2018-09-13T08:05:02.787Z,24.50
2018-09-13T08:07:32.492Z,24.40
2018-09-13T08:10:04.568Z,24.70
2018-09-13T08:12:37.284Z,25.10
2018-09-13T08:15:10.305Z,26.20
2018-09-13T08:17:39.037Z,27.00
2018-09-13T08:20:08.823Z,27.40
2018-09-13T08:22:40.773Z,28.20
2018-09-13T08:25:12.626Z,28.90
2018-09-13T08:27:44.505Z,29.40
2018-09-13T08:30:19.878Z,29.30
2018-09-13T08:32:54.625Z,30.40
2018-09-13T08:35:24.301Z,31.20
2018-09-13T08:37:53.045Z,31.60
2018-09-13T08:40:29.030Z,32.00
2018-09-13T08:42:59.813Z,32.40
2018-09-13T08:45:28.561Z,32.20
2018-09-13T08:47:57.359Z,32.80
2018-09-13T08:50:26.096Z,33.70
2018-09-13T08:52:58.784Z,34.60
2018-09-13T08:55:45.545Z,34.90
2018-09-13T08:58:16.336Z,34.90
2018-09-13T09:00:45.146Z,33.70
2018-09-13T09:03:14.841Z,33.40
2018-09-13T09:05:48.734Z,33.70
2018-09-13T09:08:20.573Z,34.20
2018-09-13T09:10:53.209Z,34.90
2018-09-13T09:13:25.053Z,35.80
2018-09-13T09:15:57.585Z,36.50
2018-09-13T09:18:34.263Z,36.90
2018-09-13T09:21:02.960Z,37.40
2018-09-13T09:23:32.021Z,38.50
2018-09-13T09:26:04.105Z,39.40
2018-09-13T09:28:43.871Z,39.30
2018-09-13T09:31:16.619Z,37.90
2018-09-13T09:33:47.325Z,35.00
2018-09-13T09:36:18.104Z,34.10
2018-09-13T09:38:51.372Z,34.80
2018-09-13T09:41:24.090Z,35.60
2018-09-13T09:43:53.903Z,34.80
2018-09-13T09:46:22.601Z,36.20
2018-09-13T09:48:52.396Z,36.90
2018-09-13T09:51:23.224Z,36.80
2018-09-13T09:53:55.097Z,36.80
2018-09-13T09:56:23.868Z,36.00
2018-09-13T09:59:03.905Z,34.60
2018-09-13T10:01:39.840Z,34.10
2018-09-13T10:04:08.556Z,33.10
2018-09-13T10:06:45.745Z,32.50
2018-09-13T10:09:18.345Z,31.70
2018-09-13T10:11:56.592Z,30.80
2018-09-13T10:14:25.272Z,29.60
2018-09-13T10:16:59.532Z,28.80
2018-09-13T10:19:33.729Z,28.20
2018-09-13T10:22:07.846Z,27.60
2018-09-13T10:24:42.097Z,27.30
2018-09-13T10:27:18.364Z,26.70
2018-09-13T10:29:58.473Z,26.60
2018-09-13T10:32:32.760Z,26.40
2018-09-13T10:35:07.141Z,26.10
2018-09-13T10:37:46.321Z,25.80
2018-09-13T10:40:20.438Z,25.50
2018-09-13T10:43:00.041Z,25.00
2018-09-13T10:45:40.810Z,24.70
2018-09-13T10:48:28.929Z,24.50
2018-09-13T10:51:16.041Z,24.30
2018-09-13T10:53:57.849Z,23.90
2018-09-13T10:56:30.533Z,23.50
2018-09-13T10:58:59.312Z,23.20
2018-09-13T11:01:33.857Z,22.80
2018-09-13T11:04:19.539Z,22.50
2018-09-13T11:09:44.957Z,22.50
2018-09-13T11:12:23.737Z,22.60
2018-09-13T11:14:57.905Z,22.80
2018-09-13T11:17:28.636Z,23.10
2018-09-13T11:19:57.381Z,23.20
2018-09-13T11:22:29.948Z,23.50
2018-09-13T11:25:21.949Z,23.70
2018-09-13T11:28:03.337Z,23.90
2018-09-13T11:30:37.699Z,24.00
2018-09-13T11:33:06.496Z,24.10
2018-09-13T11:35:37.377Z,23.90
2018-09-13T11:38:06.200Z,23.90
2018-09-13T11:40:38.837Z,24.40
2018-09-13T11:43:07.476Z,24.60
2018-09-13T11:45:36.256Z,26.00
2018-09-13T11:48:19.128Z,26.80
2018-09-13T11:50:47.876Z,27.20
2018-09-13T11:53:23.240Z,27.60
2018-09-13T11:55:59.044Z,27.60
2018-09-13T11:58:27.864Z,26.30
2018-09-13T12:01:00.324Z,25.80
2018-09-13T12:03:41.496Z,26.10
2018-09-13T12:06:22.244Z,25.80
2018-09-13T12:09:57.588Z,25.70
2018-09-13T12:12:26.308Z,26.00
2018-09-13T12:14:55.028Z,26.20
2018-09-13T12:17:23.768Z,27.10
2018-09-13T12:20:05.228Z,29.60
2018-09-13T12:22:43.598Z,31.30
2018-09-13T12:25:23.473Z,33.30
2018-09-13T12:27:55.673Z,32.70
2018-09-13T12:30:24.389Z,31.50
2018-09-13T12:32:58.280Z,29.40
2018-09-13T12:35:32.092Z,27.40
2018-09-13T12:38:13.223Z,26.50
2018-09-13T12:40:42.077Z,26.10
2018-09-13T12:43:22.684Z,25.50
2018-09-13T12:45:51.896Z,24.70
2018-09-13T12:48:24.188Z,24.30
2018-09-13T12:50:56.264Z,23.90
2018-09-13T12:53:30.532Z,23.50
2018-09-13T12:56:09.264Z,23.20
2018-09-13T13:01:32.781Z,23.10
2018-09-13T13:04:18.008Z,22.80
2018-09-13T13:06:48.813Z,22.70
2018-09-13T13:09:18.509Z,22.60
2018-09-13T13:11:47.240Z,22.80
2018-09-13T13:14:22.537Z,22.80
2018-09-13T13:16:57.014Z,22.90
2018-09-13T13:19:28.914Z,23.30
2018-09-13T13:22:15.628Z,24.10
2018-09-13T13:24:50.278Z,25.00
2018-09-13T13:27:23.221Z,24.90
2018-09-13T13:29:59.431Z,24.50
2018-09-13T13:32:31.836Z,24.60
2018-09-13T13:35:01.765Z,24.60
2018-09-13T13:37:36.837Z,24.50
2018-09-13T13:40:10.072Z,24.30
2018-09-13T13:42:39.801Z,23.80
2018-09-13T13:45:18.225Z,23.60
2018-09-13T13:47:50.580Z,23.20
2018-09-13T13:50:19.417Z,23.10
2018-09-13T13:52:48.185Z,23.00
2018-09-13T13:55:19.001Z,22.80
2018-09-13T13:57:58.349Z,22.70
2018-09-13T14:00:27.116Z,22.50
2018-09-13T14:02:57.860Z,22.50
2018-09-13T14:05:26.601Z,22.60
2018-09-13T14:07:57.364Z,22.60
2018-09-13T14:13:19.096Z,22.70
2018-09-13T14:15:56.201Z,22.70
2018-09-13T14:18:31.148Z,22.70
2018-09-13T14:21:03.621Z,22.60
2018-09-13T14:23:34.496Z,22.50
2018-09-13T14:26:05.628Z,22.40
2018-09-13T14:28:45.496Z,22.30
2018-09-13T14:31:14.240Z,22.40
2018-09-13T14:33:43.073Z,22.40
2018-09-13T14:36:22.001Z,22.60
2018-09-13T14:38:52.732Z,22.60
2018-09-13T14:41:22.486Z,22.90
2018-09-13T14:43:53.181Z,23.20
2018-09-13T14:46:22.909Z,24.20
2018-09-13T14:48:57.196Z,24.90
2018-09-13T14:51:40.073Z,25.00
2018-09-13T14:54:09.801Z,25.00
2018-09-13T14:56:39.597Z,25.00
2018-09-13T14:59:21.717Z,26.00
2018-09-13T15:01:55.697Z,27.60
2018-09-13T15:04:24.467Z,29.00
2018-09-13T15:06:53.274Z,28.80
2018-09-13T15:09:22.972Z,28.30
2018-09-13T15:11:52.693Z,28.80
2018-09-13T15:14:21.464Z,29.20
2018-09-13T15:16:51.256Z,29.40
2018-09-13T15:19:19.972Z,30.50
2018-09-13T15:21:48.752Z,30.80
2018-09-13T15:24:18.627Z,30.40
2018-09-13T15:26:47.336Z,31.10
2018-09-13T15:29:18.072Z,31.80
2018-09-13T15:31:46.854Z,30.40
2018-09-13T15:34:16.667Z,29.00
2018-09-13T15:36:49.349Z,27.10
2018-09-13T15:39:18.140Z,26.10
2018-09-13T15:41:48.864Z,25.80
2018-09-13T15:44:17.652Z,25.70
2018-09-13T15:46:46.468Z,25.40
2018-09-13T15:49:15.212Z,25.00
2018-09-13T15:51:44.024Z,25.00
2018-09-13T15:54:18.412Z,25.10
2018-09-13T15:56:50.764Z,24.60
2018-09-13T15:59:20.575Z,24.10
2018-09-13T16:01:50.256Z,23.60
2018-09-13T16:04:19.024Z,23.20
2018-09-13T16:06:47.812Z,22.80
2018-09-13T16:09:16.624Z,22.80
2018-09-13T16:11:51.240Z,23.00
2018-09-13T16:14:24.896Z,23.10
2018-09-13T16:16:54.632Z,23.00
2018-09-13T16:19:25.379Z,22.70
2018-09-13T16:21:59.173Z,22.50
2018-09-13T16:24:38.441Z,22.10
2018-09-13T16:27:23.200Z,21.80
2018-09-13T16:29:57.592Z,21.60
2018-09-13T16:32:26.384Z,21.40
2018-09-13T16:35:06.918Z,21.30
2018-09-13T16:37:45.789Z,21.20
2018-09-13T16:40:23.460Z,21.10
2018-09-13T16:43:03.404Z,21.10
2018-09-13T16:45:33.244Z,21.00
2018-09-13T16:48:04.549Z,21.00
2018-09-13T16:50:33.364Z,20.90
2018-09-13T16:53:02.173Z,20.80
2018-09-13T16:55:36.068Z,20.70
2018-09-13T16:58:21.804Z,20.70
2018-09-13T17:01:08.609Z,20.60
2018-09-13T17:03:53.372Z,20.60
2018-09-13T17:06:22.192Z,20.50
2018-09-13T17:08:54.164Z,20.50
2018-09-13T17:11:22.976Z,20.50
2018-09-13T17:14:04.909Z,20.40
2018-09-13T17:16:35.579Z,20.40
2018-09-13T17:19:04.355Z,20.30
2018-09-13T17:21:52.759Z,20.30
2018-09-13T17:24:23.571Z,20.20
2018-09-13T17:27:03.088Z,20.10
2018-09-13T17:29:54.992Z,20.10
2018-09-13T17:32:34.967Z,20.00
2018-09-13T17:35:20.715Z,19.90
2018-09-13T17:37:54.488Z,19.90
2018-09-13T17:40:23.267Z,19.80
2018-09-13T17:42:54.127Z,19.80
2018-09-13T17:45:29.371Z,19.70
2018-09-13T17:47:59.293Z,19.70
2018-09-13T17:53:21.899Z,19.50
2018-09-13T17:55:56.544Z,19.40
2018-09-13T17:58:43.305Z,19.30
2018-09-13T18:01:13.229Z,19.30
2018-09-13T18:03:56.015Z,19.20
2018-09-13T18:06:29.776Z,19.10
2018-09-13T18:09:00.596Z,19.00
2018-09-13T18:11:38.948Z,18.90
2018-09-13T18:14:07.804Z,18.90
2018-09-13T18:16:41.087Z,18.90
2018-09-13T18:19:16.475Z,18.90
2018-09-13T18:21:45.256Z,18.80
2018-09-13T18:24:21.003Z,18.80
2018-09-13T18:26:54.464Z,18.80
2018-09-13T18:32:22.880Z,18.70
2018-09-13T18:37:45.844Z,18.60
2018-09-13T18:40:19.141Z,18.60
2018-09-13T18:42:48.972Z,18.60
2018-09-13T18:45:21.902Z,18.50
2018-09-13T18:47:50.644Z,18.60
2018-09-13T18:50:22.676Z,18.60
2018-09-13T18:52:56.404Z,18.60
2018-09-13T18:55:28.494Z,18.70
2018-09-13T18:57:58.325Z,18.70
2018-09-13T19:00:28.117Z,18.60
2018-09-13T19:03:02.186Z,18.60
2018-09-13T19:05:40.652Z,18.50
2018-09-13T19:08:09.525Z,18.60
2018-09-13T19:10:42.960Z,18.60
2018-09-13T19:13:11.776Z,18.60
2018-09-13T19:15:53.095Z,18.60
2018-09-13T19:18:46.732Z,18.60
2018-09-13T19:21:26.461Z,18.60
2018-09-13T19:24:15.104Z,18.50
2018-09-13T19:26:47.864Z,18.50
2018-09-13T19:29:32.857Z,18.50
2018-09-13T19:32:11.233Z,18.50
2018-09-13T19:37:04.587Z,18.60
2018-09-13T19:39:38.248Z,18.60
2018-09-13T19:42:19.135Z,18.60
2018-09-13T19:44:48.969Z,18.60
2018-09-13T19:47:31.104Z,18.60
2018-09-13T19:50:05.669Z,18.60
2018-09-13T19:52:38.197Z,18.60
2018-09-13T19:55:12.085Z,18.60
2018-09-13T19:57:46.621Z,18.60
2018-09-13T20:00:19.914Z,18.60
2018-09-13T20:02:58.440Z,18.50
2018-09-13T20:05:30.928Z,18.30
2018-09-13T20:08:05.551Z,18.20
2018-09-13T20:10:51.880Z,18.10
2018-09-13T20:13:22.637Z,18.10
2018-09-13T20:15:51.850Z,18.00
2018-09-13T20:18:20.655Z,18.00
2018-09-13T20:20:50.420Z,17.90
2018-09-13T20:23:26.628Z,17.80
2018-09-13T20:25:55.464Z,17.80
2018-09-13T20:28:26.281Z,17.70
2018-09-13T20:30:56.015Z,17.70
2018-09-13T20:33:36.116Z,17.50
2018-09-13T20:36:08.456Z,17.50
2018-09-13T20:38:47.951Z,17.50
2018-09-13T20:41:17.680Z,17.50
2018-09-13T20:43:52.232Z,17.50
2018-09-13T20:46:21.000Z,17.50
2018-09-13T20:49:00.585Z,17.30
2018-09-13T20:51:41.712Z,17.20
2018-09-13T20:54:22.200Z,17.00
2018-09-13T20:57:01.237Z,16.80
2018-09-13T20:59:30.000Z,16.60
2018-09-13T21:01:58.884Z,16.50
2018-09-13T21:04:28.696Z,16.40
2018-09-13T21:07:15.064Z,16.30
2018-09-13T21:09:50.836Z,16.40
2018-09-13T21:12:20.666Z,16.30
2018-09-13T21:14:59.928Z,16.30
2018-09-13T21:17:28.684Z,16.20
2018-09-13T21:20:16.768Z,16.20
2018-09-13T21:22:45.632Z,16.20
2018-09-13T21:25:20.588Z,16.10
2018-09-13T21:27:50.368Z,16.10
2018-09-13T21:30:24.064Z,16.10
2018-09-13T21:32:54.927Z,16.10
2018-09-13T21:35:24.695Z,16.10
2018-09-13T21:37:54.528Z,16.00
2018-09-13T21:40:24.367Z,16.00
2018-09-13T21:42:53.129Z,16.00
2018-09-13T21:45:21.944Z,15.90
2018-09-13T21:47:51.720Z,15.90
2018-09-13T21:50:22.564Z,16.00
2018-09-13T21:52:51.334Z,15.90
2018-09-13T21:55:20.169Z,15.90
2018-09-13T21:57:59.384Z,15.90
2018-09-13T22:00:48.780Z,15.90
2018-09-13T22:03:19.652Z,15.80
2018-09-13T22:06:03.164Z,15.80
2018-09-13T22:08:37.544Z,15.80
2018-09-13T22:11:10.022Z,15.80
2018-09-13T22:13:42.864Z,15.80
2018-09-13T22:16:12.683Z,15.70
2018-09-13T22:18:46.316Z,15.70
2018-09-13T22:21:15.067Z,15.70
2018-09-13T22:23:47.072Z,15.70
2018-09-13T22:26:17.868Z,15.70
2018-09-13T22:28:52.536Z,15.60
2018-09-13T22:31:21.274Z,15.60
2018-09-13T22:33:56.092Z,15.60
2018-09-13T22:36:37.552Z,15.60
2018-09-13T22:39:11.063Z,15.60
2018-09-13T22:41:43.664Z,15.60
2018-09-13T22:44:12.492Z,15.60
2018-09-13T22:46:42.280Z,15.50
2018-09-13T22:49:11.092Z,15.50
2018-09-13T22:51:40.864Z,15.50
2018-09-13T22:54:17.572Z,15.50
2018-09-13T22:56:48.380Z,15.50
2018-09-13T22:59:18.132Z,15.50
2018-09-13T23:01:46.984Z,15.50
2018-09-13T23:04:16.793Z,15.50
2018-09-13T23:07:04.168Z,15.50
2018-09-13T23:09:37.300Z,15.50
2018-09-13T23:12:06.576Z,15.50
2018-09-13T23:14:41.663Z,15.40
2018-09-13T23:17:10.456Z,15.40
2018-09-13T23:19:41.268Z,15.40
2018-09-13T23:22:19.800Z,15.40
2018-09-13T23:24:53.992Z,15.40
2018-09-13T23:27:29.592Z,15.40
2018-09-13T23:29:59.336Z,15.40
2018-09-13T23:32:29.459Z,15.40
2018-09-13T23:35:03.076Z,15.40
2018-09-13T23:37:31.900Z,15.40
2018-09-13T23:40:00.837Z,15.40
2018-09-13T23:42:31.496Z,15.40
2018-09-13T23:45:04.920Z,15.50
2018-09-13T23:47:34.715Z,15.40
2018-09-13T23:50:17.353Z,15.40
2018-09-13T23:52:58.000Z,15.50
2018-09-13T23:55:44.028Z,15.40
2018-09-13T23:58:14.804Z,15.40
